Flight Track Log - Related Links

Times and Time Zones

All times are in EDT time to prevent confusion due to time zone crossing. See the DAL268 flight status page for this flight to view local times or setup timezone preferences in your user account.

Time Position Orientation Groundspeed Altitude Reporting Facility
EDT Latitude Longitude Course Direction KTS MPH feet Rate Location/Type
Wed 03:12:07 PM 37.6090 -122.3790 302° West 74 85  Level FlightAware ADS-B
Wed 03:12:17 PM 37.6130 -122.3770 22° Northeast 120 138 214 Level FlightAware ADS-B
Wed 03:12:35 PM 37.6249 -122.3690 28° Northeast 175 201 100 1,400 Climbing FlightAware ADS-B
Wed 03:12:47 PM 37.6328 -122.3630 31° Northeast 169 194 700 2,800 Climbing FlightAware ADS-B
Wed 03:12:50 PM 37.6349 -122.3620 21° North 169 194 800 2,500 Climbing FlightAware ADS-B
Wed 03:12:59 PM 37.6406 -122.3560 40° Northeast 176 203 1,200 2,500 Climbing FlightAware ADS-B
Wed 03:13:02 PM 37.6422 -122.3540 45° Northeast 178 205 1,300 2,000 Climbing FlightAware ADS-B
Wed 03:13:17 PM 37.6500 -122.3420 51° Northeast 188 216 1,800 1,778 Climbing FlightAware ADS-B
Wed 03:13:29 PM 37.6574 -122.3310 50° Northeast 203 234 2,100 1,500 Climbing FlightAware ADS-B
Wed 03:13:41 PM 37.6655 -122.3190 50° Northeast 216 249 2,400 1,500 Climbing FlightAware ADS-B
Wed 03:13:45 PM 37.6683 -122.3160 40° Northeast 218 251 2,500 2,571 Climbing FlightAware ADS-B
Wed 03:13:48 PM 37.6710 -122.3140 30° Northeast 219 252 2,700 2,250 Climbing FlightAware ADS-B
Wed 03:13:53 PM 37.6749 -122.3110 31° Northeast 223 257 2,800 1,636 Climbing FlightAware ADS-B
Wed 03:13:59 PM 37.6813 -122.3080 20° North 232 267 3,000 1,429 Climbing FlightAware ADS-B
Wed 03:14:14 PM 37.6978 -122.3020 16° North 254 292 3,300 1,742 Climbing FlightAware ADS-B
Wed 03:14:30 PM 37.7163 -122.2950 17° North 267 307 3,900 2,516 Climbing FlightAware ADS-B
Wed 03:14:45 PM 37.7346 -122.2890 15° North 270 311 4,600 2,710 Climbing FlightAware ADS-B
Wed 03:15:01 PM 37.7536 -122.2830 14° North 277 319 5,300 2,710 Climbing FlightAware ADS-B
Wed 03:15:16 PM 37.7731 -122.2760 16° North 283 326 6,000 2,769 Climbing FlightAware ADS-B
Wed 03:15:27 PM 37.7860 -122.2710 17° North 284 327 6,500 2,842 Climbing FlightAware ADS-B
Wed 03:15:35 PM 37.7954 -122.2650 27° Northeast 285 328 6,900 2,694 Climbing FlightAware ADS-B
Wed 03:16:16 PM 37.8391 -122.2220 38° Northeast 294 338 8,700 2,483 Climbing FlightAware ADS-B
Wed 03:16:33 PM 37.8571 -122.2030 40° Northeast 304 350 9,300 2,298 Climbing FlightAware ADS-B
Wed 03:17:03 PM 37.8898 -122.1680 40° Northeast 314 361 10,500 1,800 Climbing FlightAware ADS-B
Wed 03:17:33 PM 37.9249 -122.1290 41° Northeast 343 395 11,100 1,258 Climbing FlightAware ADS-B
Wed 03:18:05 PM 37.9642 -122.0860 41° Northeast 372 428 11,800 1,500 Climbing FlightAware ADS-B
Wed 03:18:41 PM 38.0127 -122.0310 42° Northeast 394 453 12,800 1,881 Climbing FlightAware ADS-B
Wed 03:19:12 PM 38.0563 -121.9830 41° Northeast 401 461 13,900 2,031 Climbing FlightAware ADS-B
Wed 03:19:46 PM 38.1030 -121.9320 41° Northeast 410 472 15,000 1,909 Climbing FlightAware ADS-B
Wed 03:20:18 PM 38.1500 -121.8800 41° Northeast 420 483 16,000 1,909 Climbing FlightAware ADS-B
Wed 03:20:52 PM 38.2000 -121.8240 41° Northeast 428 493 17,100 1,833 Climbing FlightAware ADS-B
Wed 03:21:30 PM 38.2570 -121.7610 41° Northeast 437 503 18,200 1,714 Climbing FlightAware ADS-B
Wed 03:22:02 PM 38.3060 -121.7060 41° Northeast 444 511 19,100 1,787 Climbing FlightAware ADS-B
Wed 03:22:17 PM 38.3311 -121.6780 41° Northeast 449 517 19,600 1,667 Climbing FlightAware ADS-B
Wed 03:23:14 PM 38.4190 -121.5780 42° Northeast 459 528 21,100 1,548 Climbing FlightAware ADS-B
Wed 03:23:50 PM 38.4710 -121.5040 48° Northeast 464 534 22,000 1,479 Climbing FlightAware ADS-B
Wed 03:24:27 PM 38.5190 -121.4240 53° Northeast 469 540 22,900 1,500 Climbing FlightAware ADS-B
Wed 03:24:58 PM 38.5600 -121.3530 54° Northeast 475 547 23,700 1,522 Climbing FlightAware ADS-B
Wed 03:25:34 PM 38.6070 -121.2710 54° Northeast 480 552 24,600 1,417 Climbing FlightAware ADS-B
Wed 03:26:10 PM 38.6540 -121.1900 53° Northeast 485 558 25,400 1,333 Climbing FlightAware ADS-B
Wed 03:26:46 PM 38.7030 -121.1050 54° Northeast 493 567 26,200 1,250 Climbing FlightAware ADS-B
Wed 03:27:22 PM 38.7520 -121.0210 53° Northeast 499 574 26,900 1,164 Climbing FlightAware ADS-B
Wed 03:27:53 PM 38.7950 -120.9470 53° Northeast 504 580 27,500 1,130 Climbing FlightAware ADS-B
Wed 03:28:31 PM 38.8470 -120.8550 54° Northeast 510 587 28,200 1,167 Climbing FlightAware ADS-B
Wed 03:29:05 PM 38.8930 -120.7760 53° Northeast 512 589 28,900 1,457 Climbing FlightAware ADS-B
Wed 03:29:41 PM 38.9470 -120.6840 53° Northeast 508 585 29,900 1,583 Climbing FlightAware ADS-B
Wed 03:30:17 PM 38.9950 -120.6010 53° Northeast 504 580 30,800 1,478 Climbing FlightAware ADS-B
Wed 03:30:50 PM 39.0390 -120.5230 54° Northeast 502 578 31,600 1,433 Climbing FlightAware ADS-B
Wed 03:31:24 PM 39.0860 -120.4420 53° Northeast 501 577 32,400 1,059 Climbing FlightAware ADS-B
Wed 03:31:58 PM 39.1320 -120.3610 54° Northeast 506 582 32,800 845 Climbing FlightAware ADS-B
Wed 03:32:35 PM 39.1840 -120.2700 54° Northeast 512 589 33,400 676 Climbing FlightAware ADS-B
Wed 03:33:09 PM 39.2350 -120.1810 53° Northeast 520 598 33,600 592 Climbing FlightAware ADS-B
Wed 03:33:46 PM 39.2860 -120.0910 54° Northeast 525 604 34,100 667 Climbing FlightAware ADS-B
Wed 03:34:21 PM 39.3390 -119.9980 54° Northeast 531 611 34,400 696 Climbing FlightAware ADS-B
Wed 03:34:55 PM 39.3880 -119.9110 54° Northeast 534 615 34,900 943 Climbing FlightAware ADS-B
Wed 03:35:31 PM 39.4400 -119.8190 54° Northeast 533 613 35,500 857 Climbing FlightAware ADS-B
Wed 03:36:05 PM 39.4890 -119.7310 54° Northeast 537 618 35,900 618 Climbing FlightAware ADS-B
Wed 03:36:39 PM 39.5390 -119.6420 54° Northeast 541 623 36,200 522 Climbing FlightAware ADS-B
Wed 03:37:14 PM 39.5900 -119.5510 54° Northeast 544 626 36,500 583 Climbing FlightAware ADS-B
Wed 03:37:51 PM 39.6460 -119.4500 54° Northeast 545 627 36,900 423 Climbing FlightAware ADS-B
Wed 03:38:25 PM 39.6950 -119.3620 54° Northeast 548 631 37,000 86 Climbing FlightAware ADS-B
Wed 03:39:01 PM 39.7490 -119.2640 54° Northeast 546 628 37,000  Level FlightAware ADS-B
Wed 03:39:37 PM 39.8010 -119.1710 54° Northeast 546 628 37,000  Level FlightAware ADS-B
Wed 03:40:08 PM 39.8460 -119.0880 55° Northeast 545 627 37,000  Level FlightAware ADS-B
Wed 03:40:45 PM 39.9010 -118.9890 54° Northeast 546 628 37,000  Level FlightAware ADS-B
Wed 03:41:21 PM 39.9550 -118.8910 54° Northeast 548 631 37,000  Level FlightAware ADS-B
Wed 03:42:01 PM 40.0120 -118.7850 55° Northeast 547 629 37,000  Level FlightAware ADS-B
Wed 03:42:37 PM 40.0660 -118.6870 54° Northeast 545 627 37,000  Level FlightAware ADS-B
Wed 03:43:13 PM 40.1150 -118.5880 57° Northeast 543 625 37,000  Level FlightAware ADS-B
Wed 03:43:45 PM 40.1480 -118.4930 66° East 540 621 37,000  Level FlightAware ADS-B
Wed 03:44:21 PM 40.1800 -118.3840 69° East 537 618 37,000  Level FlightAware ADS-B
Wed 03:44:59 PM 40.2100 -118.2710 71° East 536 617 37,000  Level FlightAware ADS-B
Wed 03:45:32 PM 40.2340 -118.1830 70° East 536 617 37,000  Level FlightAware ADS-B
Wed 03:46:08 PM 40.2670 -118.0620 70° East 537 618 37,000  Level FlightAware ADS-B
Wed 03:46:37 PM 40.2910 -117.9710 71° East 537 618 37,000  Level FlightAware ADS-B
Wed 03:47:17 PM 40.3200 -117.8670 70° East 537 618 37,000  Level FlightAware ADS-B
Wed 03:48:13 PM 40.3670 -117.6900 71° East 537 618 37,000  Level FlightAware ADS-B
Wed 03:48:49 PM 40.3930 -117.5960 70° East 537 618 37,000  Level FlightAware ADS-B
Wed 03:49:25 PM 40.4190 -117.5020 70° East 537 618 37,000  Level FlightAware ADS-B
Wed 03:50:02 PM 40.4460 -117.4060 70° East 537 618 37,000  Level FlightAware ADS-B
Wed 03:50:36 PM 40.4710 -117.3170 70° East 537 618 37,000  Level FlightAware ADS-B
Wed 03:51:14 PM 40.4980 -117.2180 70° East 537 618 37,000  Level FlightAware ADS-B
Wed 03:51:50 PM 40.5240 -117.1240 70° East 537 618 37,000  Level FlightAware ADS-B
Wed 03:52:26 PM 40.5500 -117.0300 70° East 537 618 37,000  Level FlightAware ADS-B
Wed 03:53:03 PM 40.5770 -116.9330 70° East 537 618 37,000  Level FlightAware ADS-B
Wed 03:53:27 PM 40.5940 -116.8710 70° East 537 618 37,000  Level FlightAware ADS-B
Wed 03:54:03 PM 40.6200 -116.7770 70° East 537 618 37,000  Level FlightAware ADS-B
Wed 03:54:39 PM 40.6460 -116.6820 70° East 537 618 37,000  Level FlightAware ADS-B
Wed 03:55:13 PM 40.6710 -116.5930 70° East 537 618 37,000  Level FlightAware ADS-B
Wed 03:55:49 PM 40.6970 -116.4990 70° East 537 618 37,000  Level FlightAware ADS-B
Wed 03:56:25 PM 40.7230 -116.4050 70° East 537 618 37,000  Level FlightAware ADS-B
Wed 03:57:02 PM 40.7490 -116.3080 70° East 537 618 37,000  Level FlightAware ADS-B
Wed 03:57:36 PM 40.8344 -115.9580 72° East 534 615 37,000  Level FlightAware ADS-B
Wed 03:58:07 PM 40.8644 -115.8650 67° East 533 613 37,000  Level FlightAware ADS-B
Wed 04:00:44 PM 41.0161 -115.3970 67° East 530 610 37,000  Level FlightAware ADS-B
Wed 04:01:15 PM 41.0461 -115.3060 66° East 530 610 37,000  Level FlightAware ADS-B
Wed 04:01:46 PM 41.0750 -115.2150 67° East 529 609 37,000  Level FlightAware ADS-B
Wed 04:02:17 PM 41.1045 -115.1240 67° East 527 606 37,000  Level FlightAware ADS-B
Wed 04:02:47 PM 41.1335 -115.0350 67° East 525 604 37,000  Level FlightAware ADS-B
Wed 04:03:22 PM 41.1670 -114.9320 67° East 525 604 37,000  Level FlightAware ADS-B
Wed 04:04:08 PM 41.2075 -114.7920 69° East 514 592 37,000  Level FlightAware ADS-B
Wed 04:04:39 PM 41.2214 -114.6990 79° East 515 593 37,000  Level FlightAware ADS-B
Wed 04:05:09 PM 41.2356 -114.6040 79° East 517 595 37,000  Level FlightAware ADS-B
Wed 04:05:40 PM 41.2510 -114.5090 78° East 520 598 37,000  Level FlightAware ADS-B
Wed 04:06:10 PM 41.2667 -114.4140 78° East 521 600 37,000  Level FlightAware ADS-B
Wed 04:06:41 PM 41.2825 -114.3200 77° East 519 597 37,000  Level FlightAware ADS-B
Wed 04:07:27 PM 41.3060 -114.1820 77° East 514 592 37,000  Level FlightAware ADS-B
Wed 04:07:42 PM 41.3144 -114.1300 78° East 513 590 37,000  Level FlightAware ADS-B
Wed 04:08:13 PM 41.3300 -114.0370 77° East 516 594 37,000  Level FlightAware ADS-B
Wed 04:08:43 PM 41.3456 -113.9440 77° East 517 595 37,000  Level FlightAware ADS-B
Wed 04:09:13 PM 41.3613 -113.8500 77° East 517 595 37,000  Level FlightAware ADS-B
Wed 04:09:28 PM 41.3689 -113.8030 78° East 516 594 37,000  Level FlightAware ADS-B
Wed 04:10:00 PM 41.3817 -113.7040 80° East 514 592 37,000  Level FlightAware ADS-B
Wed 04:10:30 PM 41.3929 -113.6100 81° East 512 589 37,000  Level FlightAware ADS-B
Wed 04:11:00 PM 41.4045 -113.5160 81° East 514 592 37,000  Level FlightAware ADS-B
Wed 04:11:32 PM 41.4168 -113.4170 81° East 516 594 37,000  Level FlightAware ADS-B
Wed 04:12:02 PM 41.4287 -113.3230 80° East 516 594 37,000  Level FlightAware ADS-B
Wed 04:12:32 PM 41.4405 -113.2290 80° East 515 593 37,000  Level FlightAware ADS-B
Wed 04:13:07 PM 41.4542 -113.1200 80° East 515 593 37,000  Level FlightAware ADS-B
Wed 04:13:38 PM 41.4663 -113.0230 81° East 513 590 37,000  Level FlightAware ADS-B
Wed 04:14:16 PM 41.4808 -112.9050 81° East 512 589 37,000  Level FlightAware ADS-B
Wed 04:14:47 PM 41.4922 -112.8110 81° East 509 586 37,000  Level FlightAware ADS-B
Wed 04:15:17 PM 41.5038 -112.7150 81° East 509 586 37,000  Level FlightAware ADS-B
Wed 04:15:52 PM 41.5166 -112.6080 81° East 509 586 37,000  Level FlightAware ADS-B
Wed 04:16:23 PM 41.5279 -112.5130 81° East 509 586 37,000  Level FlightAware ADS-B
Wed 04:16:59 PM 41.5405 -112.4010 81° East 509 586 37,000  Level FlightAware ADS-B
Wed 04:17:29 PM 41.5502 -112.3080 82° East 508 585 37,000  Level FlightAware ADS-B
Wed 04:18:00 PM 41.5600 -112.2120 82° East 509 586 37,000  Level FlightAware ADS-B
Wed 04:18:30 PM 41.5697 -112.1180 82° East 508 585 37,000  Level FlightAware ADS-B
Wed 04:19:01 PM 41.5793 -112.0250 82° East 506 582 37,000  Level FlightAware ADS-B
Wed 04:19:32 PM 41.5890 -111.9300 82° East 503 579 37,000  Level FlightAware ADS-B
Wed 04:19:41 PM 41.5919 -111.9020 82° East 504 580 37,000  Level FlightAware ADS-B
Wed 04:20:12 PM 41.6015 -111.8070 82° East 502 578 37,000  Level FlightAware ADS-B
Wed 04:20:50 PM 41.6135 -111.6870 82° East 502 578 37,000  Level FlightAware ADS-B
Wed 04:21:21 PM 41.6228 -111.5950 82° East 504 580 37,000  Level FlightAware ADS-B
Wed 04:21:52 PM 41.6322 -111.4990 83° East 506 582 37,000  Level FlightAware ADS-B
Wed 04:22:22 PM 41.6413 -111.4050 83° East 504 580 37,000  Level FlightAware ADS-B
Wed 04:22:52 PM 41.6504 -111.3110 83° East 504 580 37,000  Level FlightAware ADS-B
Wed 04:23:23 PM 41.6596 -111.2160 83° East 505 581 37,000  Level FlightAware ADS-B
Wed 04:23:54 PM 41.6684 -111.1230 83° East 502 578 37,000  Level FlightAware ADS-B
Wed 04:24:28 PM 41.6784 -111.0170 83° East 499 574 37,000  Level FlightAware ADS-B
Wed 04:24:59 PM 41.6872 -110.9230 83° East 501 577 37,000  Level FlightAware ADS-B
Wed 04:25:29 PM 41.6958 -110.8300 83° East 503 579 37,000  Level FlightAware ADS-B
Wed 04:26:10 PM 41.7072 -110.7050 83° East 505 581 37,000  Level FlightAware ADS-B
Wed 04:27:15 PM 41.7230 -110.5920 79° East 498 573 37,000  Level FlightAware ADS-B
Wed 04:27:49 PM 41.7320 -110.5030 82° East 498 573 37,000  Level FlightAware ADS-B
Wed 04:28:25 PM 41.7420 -110.4100 82° East 498 573 37,000  Level FlightAware ADS-B
Wed 04:29:01 PM 41.7520 -110.3160 82° East 498 573 37,000  Level FlightAware ADS-B
Wed 04:29:39 PM 41.7620 -110.2170 82° East 498 573 37,000  Level FlightAware ADS-B
Wed 04:30:15 PM 41.7720 -110.1240 82° East 498 573 37,000  Level FlightAware ADS-B
Wed 04:30:50 PM 41.7820 -110.0330 82° East 498 573 37,000  Level FlightAware ADS-B
Wed 04:31:26 PM 41.7920 -109.9390 82° East 498 573 37,000  Level FlightAware ADS-B
Wed 04:32:03 PM 41.8020 -109.8430 82° East 498 573 37,000  Level FlightAware ADS-B
Wed 04:32:39 PM 41.8110 -109.7490 83° East 498 573 37,000  Level FlightAware ADS-B
Wed 04:33:15 PM 41.8210 -109.6550 82° East 498 573 37,000  Level FlightAware ADS-B
Wed 04:33:51 PM 41.8310 -109.5620 82° East 498 573 37,000  Level FlightAware ADS-B
Wed 04:34:43 PM 41.8375 -109.1597 82° East 494 568 37,000  Level Salt Lake Center
Wed 04:35:45 PM 41.8489 -108.9761 85° East 494 568 37,000  Level Salt Lake Center
Wed 04:36:47 PM 41.8633 -108.7956 84° East 492 566 37,000  Level Salt Lake Center
Wed 04:37:49 PM 41.8764 -108.6139 84° East 491 565 37,000  Level Salt Lake Center
Wed 04:38:51 PM 41.8892 -108.4325 85° East 489 563 37,000  Level Salt Lake Center
Wed 04:39:52 PM 41.9039 -108.2169 85° East 486 559 37,000  Level Salt Lake Center
Wed 04:40:54 PM 41.9172 -108.0475 84° East 486 559 37,000  Level Salt Lake Center
Wed 04:41:56 PM 41.9314 -107.8447 85° East 488 562 37,000  Level Salt Lake Center
Wed 04:42:58 PM 41.9394 -107.6728 86° East 489 563 37,000  Level Salt Lake Center
Wed 04:43:54 PM 41.9525 -107.5019 84° East 476 548 37,000  Level Denver Center
Wed 04:44:56 PM 41.9628 -107.3303 85° East 480 552 37,000  Level Denver Center
Wed 04:50:06 PM 42.0170 -106.3790 85° East 472 543 37,000  Level FlightAware ADS-B
Wed 04:50:38 PM 42.0220 -106.2870 86° East 468 539 37,000  Level FlightAware ADS-B
Wed 04:51:19 PM 42.0280 -106.1700 86° East 475 547 37,000  Level FlightAware ADS-B
Wed 04:51:51 PM 42.0330 -106.0760 86° East 478 550 37,000  Level FlightAware ADS-B
Wed 04:52:26 PM 42.0380 -105.9710 86° East 476 548 37,000  Level FlightAware ADS-B
Wed 04:52:58 PM 42.0430 -105.8730 86° East 474 545 37,000  Level FlightAware ADS-B
Wed 04:53:53 PM 42.0500 -105.7280 86° East 472 543 37,000  Level FlightAware ADS-B
Wed 04:54:22 PM 42.0540 -105.6290 87° East 477 549 37,000  Level FlightAware ADS-B
Wed 04:54:59 PM 42.0590 -105.5360 86° East 477 549 37,000  Level FlightAware ADS-B
Wed 04:55:37 PM 42.0640 -105.4030 87° East 480 552 37,000  Level FlightAware ADS-B
Wed 04:56:07 PM 42.0680 -105.3160 86° East 477 549 37,000  Level FlightAware ADS-B
Wed 04:56:45 PM 42.0730 -105.2040 87° East 471 542 37,000  Level FlightAware ADS-B
Wed 04:57:17 PM 42.0790 -105.1140 85° East 468 539 37,000  Level FlightAware ADS-B
Wed 04:57:56 PM 42.0870 -105.0180 84° East 468 539 37,000  Level FlightAware ADS-B
Wed 04:58:26 PM 42.0970 -104.9110 83° East 471 542 37,000  Level FlightAware ADS-B
Wed 04:59:12 PM 42.1070 -104.7940 83° East 471 542 37,000  Level FlightAware ADS-B
Wed 04:59:50 PM 42.1160 -104.7000 83° East 471 542 37,000  Level FlightAware ADS-B
Wed 05:00:25 PM 42.1270 -104.5660 84° East 472 543 37,000  Level FlightAware ADS-B
Wed 05:00:55 PM 42.1340 -104.4900 83° East 472 543 37,000  Level FlightAware ADS-B
Wed 05:01:31 PM 42.1430 -104.3760 84° East 470 541 37,000  Level FlightAware ADS-B
Wed 05:02:08 PM 42.1510 -104.2850 83° East 470 541 37,000  Level FlightAware ADS-B
Wed 05:02:44 PM 42.1590 -104.1960 83° East 470 541 37,000  Level FlightAware ADS-B
Wed 05:03:21 PM 42.1670 -104.1040 83° East 470 541 37,000  Level FlightAware ADS-B
Wed 05:03:57 PM 42.1750 -104.0150 83° East 470 541 37,000  Level FlightAware ADS-B
Wed 05:04:33 PM 42.1840 -103.9260 82° East 470 541 37,000  Level FlightAware ADS-B
Wed 05:05:07 PM 42.1910 -103.8420 84° East 470 541 37,000  Level FlightAware ADS-B
Wed 05:05:43 PM 42.1990 -103.7520 83° East 470 541 37,000  Level FlightAware ADS-B
Wed 05:06:19 PM 42.2070 -103.6630 83° East 470 541 37,000  Level FlightAware ADS-B
Wed 05:06:56 PM 42.2160 -103.5720 82° East 470 541 37,000  Level FlightAware ADS-B
Wed 05:07:34 PM 42.2240 -103.4770 83° East 470 541 37,000  Level FlightAware ADS-B
Wed 05:08:10 PM 42.2320 -103.3880 83° East 470 541 37,000  Level FlightAware ADS-B
Wed 05:08:46 PM 42.2400 -103.2990 83° East 470 541 37,000  Level FlightAware ADS-B
Wed 05:09:22 PM 42.2490 -103.2100 82° East 470 541 37,000  Level FlightAware ADS-B
Wed 05:09:58 PM 42.2570 -103.1210 83° East 470 541 37,000  Level FlightAware ADS-B
Wed 05:10:35 PM 42.2650 -103.0290 83° East 470 541 37,000  Level FlightAware ADS-B
Wed 05:11:20 PM 42.2750 -102.9170 83° East 470 541 37,000  Level FlightAware ADS-B
Wed 05:12:07 PM 42.2792 -102.5750 83° East 464 534 37,000  Level Minneapolis Center
Wed 05:12:51 PM 42.2861 -102.4519 86° East 461 531 37,000  Level Denver Center
Wed 05:13:53 PM 42.2978 -102.2575 85° East 466 536 37,000  Level Denver Center
Wed 05:14:55 PM 42.3092 -102.0897 85° East 467 537 37,000  Level Denver Center
Wed 05:15:57 PM 42.3217 -101.8964 85° East 464 534 37,000  Level Denver Center
Wed 05:16:59 PM 42.3311 -101.7325 85° East 464 534 37,000  Level Denver Center
Wed 05:18:01 PM 42.3417 -101.5392 86° East 460 529 37,000  Level Denver Center
Wed 05:19:03 PM 42.3525 -101.3711 85° East 468 539 37,000  Level Denver Center
Wed 05:20:05 PM 42.3625 -101.1772 86° East 463 533 37,000  Level Denver Center
Wed 05:21:07 PM 42.3700 -101.0125 86° East 460 529 37,000  Level Denver Center
Wed 05:22:09 PM 42.3811 -100.8158 86° East 467 537 37,000  Level Denver Center
Wed 05:23:11 PM 42.3897 -100.6472 86° East 469 540 37,000  Level Denver Center
Wed 05:24:13 PM 42.4003 -100.4511 86° East 467 537 37,000  Level Denver Center
Wed 05:25:15 PM 42.4072 -100.2808 87° East 472 543 37,000  Level Denver Center
Wed 05:26:17 PM 42.4167 -100.0811 86° East 476 548 37,000  Level Denver Center
Wed 05:27:19 PM 42.4239 -99.9103 87° East 475 547 37,000  Level Denver Center
Wed 05:28:21 PM 42.4319 -99.7347 86° East 475 547 37,000  Level Denver Center
Wed 05:29:23 PM 42.4392 -99.5556 87° East 474 545 37,000  Level Denver Center
Wed 05:30:08 PM 42.4450 -99.4133 87° East 478 550 37,000  Level Minneapolis Center
Wed 05:31:10 PM 42.4500 -99.2700 87° East 477 549 37,000  Level Minneapolis Center
Wed 05:32:12 PM 42.4592 -99.0536 87° East 479 551 37,000  Level Minneapolis Center
Wed 05:33:14 PM 42.4653 -98.8731 87° East 479 551 37,000  Level Minneapolis Center
Wed 05:34:28 PM 42.4725 -98.6569 87° East 479 551 37,000  Level Minneapolis Center
Wed 05:40:24 PM 42.5230 -97.5440 87° East 483 556 37,000  Level FlightAware ADS-B
Wed 05:41:04 PM 42.5280 -97.4270 87° East 485 558 37,000  Level FlightAware ADS-B
Wed 05:41:45 PM 42.5330 -97.3120 87° East 486 559 37,000  Level FlightAware ADS-B
Wed 05:42:22 PM 42.5380 -97.1860 87° East 484 557 37,000  Level FlightAware ADS-B
Wed 05:42:52 PM 42.5410 -97.0900 88° East 483 556 37,000  Level FlightAware ADS-B
Wed 05:43:39 PM 42.5460 -96.9480 87° East 485 558 37,000  Level FlightAware ADS-B
Wed 05:44:31 PM 42.5520 -96.8050 87° East 487 560 37,000  Level FlightAware ADS-B
Wed 05:45:06 PM 42.5560 -96.6830 87° East 488 562 37,000  Level FlightAware ADS-B
Wed 05:45:40 PM 42.5590 -96.5800 88° East 488 562 37,000  Level FlightAware ADS-B
Wed 05:46:08 PM 42.5620 -96.4930 87° East 488 562 37,000  Level FlightAware ADS-B
Wed 05:46:49 PM 42.5660 -96.3730 87° East 488 562 37,000  Level FlightAware ADS-B
Wed 05:47:28 PM 42.5690 -96.2550 88° East 488 562 37,000  Level FlightAware ADS-B
Wed 05:48:04 PM 42.5730 -96.1410 87° East 487 560 37,000  Level FlightAware ADS-B
Wed 05:48:42 PM 42.5760 -96.0250 88° East 487 560 37,000  Level FlightAware ADS-B
Wed 05:49:23 PM 42.5800 -95.9120 87° East 487 560 37,000  Level FlightAware ADS-B
Wed 05:49:59 PM 42.5830 -95.8190 87° East 487 560 37,000  Level FlightAware ADS-B
Wed 05:50:42 PM 42.5850 -95.6620 89° East 488 562 37,000  Level FlightAware ADS-B
Wed 05:51:14 PM 42.5880 -95.5600 88° East 490 564 37,000  Level FlightAware ADS-B
Wed 05:51:48 PM 42.5900 -95.4570 88° East 491 565 37,000  Level FlightAware ADS-B
Wed 05:52:26 PM 42.5930 -95.3390 88° East 491 565 37,000  Level FlightAware ADS-B
Wed 05:53:00 PM 42.5950 -95.2340 88° East 489 563 37,000  Level FlightAware ADS-B
Wed 05:53:34 PM 42.5970 -95.1340 88° East 487 560 37,000  Level FlightAware ADS-B
Wed 05:54:08 PM 42.5990 -95.0280 88° East 487 560 37,000  Level FlightAware ADS-B
Wed 05:54:46 PM 42.6020 -94.9120 88° East 487 560 37,000  Level FlightAware ADS-B
Wed 05:55:24 PM 42.6040 -94.8020 89° East 488 562 37,000  Level FlightAware ADS-B
Wed 05:56:02 PM 42.6060 -94.6800 89° East 490 564 37,000  Level FlightAware ADS-B
Wed 05:56:43 PM 42.6070 -94.5550 89° East 491 565 37,000  Level FlightAware ADS-B
Wed 05:57:19 PM 42.6090 -94.4430 89° East 492 566 37,000  Level FlightAware ADS-B
Wed 05:57:51 PM 42.6100 -94.3450 89° East 493 567 37,000  Level FlightAware ADS-B
Wed 05:58:31 PM 42.6120 -94.2210 89° East 493 567 37,000  Level FlightAware ADS-B
Wed 05:59:03 PM 42.6130 -94.1230 89° East 491 565 37,000  Level FlightAware ADS-B
Wed 05:59:39 PM 42.6130 -94.0130 90° East 491 565 37,000  Level FlightAware ADS-B
Wed 06:00:15 PM 42.6140 -93.9030 89° East 492 566 37,000  Level FlightAware ADS-B
Wed 06:00:47 PM 42.6150 -93.8020 89° East 493 567 37,000  Level FlightAware ADS-B
Wed 06:01:24 PM 42.6150 -93.6930 90° East 494 568 37,000  Level FlightAware ADS-B
Wed 06:01:57 PM 42.6160 -93.5880 89° East 496 571 37,000  Level FlightAware ADS-B
Wed 06:02:33 PM 42.6160 -93.4770 90° East 498 573 37,000  Level FlightAware ADS-B
Wed 06:03:09 PM 42.6160 -93.3630 90° East 497 572 37,000  Level FlightAware ADS-B
Wed 06:03:43 PM 42.6170 -93.2560 89° East 494 568 37,000  Level FlightAware ADS-B
Wed 06:04:15 PM 42.6170 -93.1640 90° East 493 567 37,000  Level FlightAware ADS-B
Wed 06:04:51 PM 42.6170 -93.0520 90° East 493 567 37,000  Level FlightAware ADS-B
Wed 06:05:25 PM 42.6160 -92.9430 91° East 492 566 37,000  Level FlightAware ADS-B
Wed 06:06:03 PM 42.6160 -92.8300 90° East 493 567 37,000  Level FlightAware ADS-B
Wed 06:06:41 PM 42.6160 -92.7130 90° East 494 568 37,000  Level FlightAware ADS-B
Wed 06:07:13 PM 42.6150 -92.6150 91° East 493 567 37,000  Level FlightAware ADS-B
Wed 06:07:45 PM 42.6150 -92.5190 90° East 493 567 37,000  Level FlightAware ADS-B
Wed 06:08:23 PM 42.6140 -92.3920 91° East 493 567 37,000  Level FlightAware ADS-B
Wed 06:09:00 PM 42.6130 -92.2800 91° East 495 570 37,000  Level FlightAware ADS-B
Wed 06:09:32 PM 42.6120 -92.1820 91° East 498 573 37,000  Level FlightAware ADS-B
Wed 06:10:10 PM 42.6110 -92.0640 91° East 497 572 37,000  Level FlightAware ADS-B
Wed 06:10:40 PM 42.6100 -91.9740 91° East 495 570 37,000  Level FlightAware ADS-B
Wed 06:11:16 PM 42.6090 -91.8630 91° East 493 567 37,000  Level FlightAware ADS-B
Wed 06:11:51 PM 42.6080 -91.7490 91° East 495 570 37,000  Level FlightAware ADS-B
Wed 06:12:23 PM 42.6070 -91.6510 91° East 497 572 37,000  Level FlightAware ADS-B
Wed 06:12:59 PM 42.6050 -91.5410 91° East 498 573 37,000  Level FlightAware ADS-B
Wed 06:13:35 PM 42.6030 -91.4270 91° East 499 574 37,000  Level FlightAware ADS-B
Wed 06:14:11 PM 42.6020 -91.3140 91° East 501 577 37,000  Level FlightAware ADS-B
Wed 06:14:47 PM 42.6000 -91.2010 91° East 501 577 37,000  Level FlightAware ADS-B
Wed 06:15:21 PM 42.5980 -91.0940 91° East 503 579 37,000  Level FlightAware ADS-B
Wed 06:15:57 PM 42.5960 -90.9800 91° East 504 580 37,000  Level FlightAware ADS-B
Wed 06:16:29 PM 42.5940 -90.8800 92° East 503 579 37,000  Level FlightAware ADS-B
Wed 06:17:07 PM 42.5910 -90.7630 92° East 499 574 37,000  Level FlightAware ADS-B
Wed 06:17:38 PM 42.5890 -90.6630 92° East 498 573 37,000  Level FlightAware ADS-B
Wed 06:18:17 PM 42.5870 -90.5440 91° East 500 575 37,000  Level FlightAware ADS-B
Wed 06:18:48 PM 42.5840 -90.4440 92° East 500 575 37,000  Level FlightAware ADS-B
Wed 06:19:25 PM 42.5820 -90.3300 91° East 501 577 37,000  Level FlightAware ADS-B
Wed 06:20:01 PM 42.5790 -90.2160 92° East 501 577 37,000  Level FlightAware ADS-B
Wed 06:20:35 PM 42.5760 -90.1090 92° East 501 577 37,000  Level FlightAware ADS-B
Wed 06:21:09 PM 42.5730 -90.0040 92° East 500 575 37,000  Level FlightAware ADS-B
Wed 06:21:45 PM 42.5700 -89.8920 92° East 497 572 37,000  Level FlightAware ADS-B
Wed 06:22:19 PM 42.5670 -89.7890 92° East 496 571 37,000  Level FlightAware ADS-B
Wed 06:22:56 PM 42.5630 -89.6740 93° East 496 571 37,000  Level FlightAware ADS-B
Wed 06:23:32 PM 42.5600 -89.5640 92° East 496 571 37,000  Level FlightAware ADS-B
Wed 06:24:04 PM 42.5570 -89.4580 92° East 497 572 37,000  Level FlightAware ADS-B
Wed 06:24:39 PM 42.5530 -89.3520 93° East 497 572 37,000  Level FlightAware ADS-B
Wed 06:25:16 PM 42.5490 -89.2350 93° East 497 572 37,000  Level FlightAware ADS-B
Wed 06:25:51 PM 42.5450 -89.1260 93° East 499 574 37,000  Level FlightAware ADS-B
Wed 06:26:24 PM 42.5420 -89.0230 92° East 499 574 37,000  Level FlightAware ADS-B
Wed 06:27:00 PM 42.5380 -88.9100 93° East 498 573 37,000  Level FlightAware ADS-B
Wed 06:27:35 PM 42.5330 -88.8030 94° East 497 572 37,000  Level FlightAware ADS-B
Wed 06:28:09 PM 42.5290 -88.6970 93° East 499 574 37,000  Level FlightAware ADS-B
Wed 06:28:46 PM 42.5250 -88.5810 93° East 504 580 37,000  Level FlightAware ADS-B
Wed 06:29:20 PM 42.5200 -88.4740 94° East 508 585 37,000  Level FlightAware ADS-B
Wed 06:29:51 PM 42.5160 -88.3760 93° East 510 587 37,000  Level FlightAware ADS-B
Wed 06:30:25 PM 42.5120 -88.2660 93° East 509 586 37,000  Level FlightAware ADS-B
Wed 06:31:04 PM 42.5060 -88.1440 94° East 509 586 37,000  Level FlightAware ADS-B
Wed 06:31:41 PM 42.5020 -88.0250 93° East 507 583 37,000  Level FlightAware ADS-B
Wed 06:32:14 PM 42.5000 -87.9180 91° East 506 582 37,000  Level FlightAware ADS-B
Wed 06:32:49 PM 42.5000 -87.8110 90° East 505 581 37,000  Level FlightAware ADS-B
Wed 06:33:22 PM 42.5000 -87.7050 90° East 505 581 37,000  Level FlightAware ADS-B
Wed 06:33:57 PM 42.4990 -87.5970 91° East 505 581 37,000  Level FlightAware ADS-B
Wed 06:34:33 PM 42.4990 -87.4830 90° East 505 581 37,000  Level FlightAware ADS-B
Wed 06:35:10 PM 42.4990 -87.3700 90° East 506 582 37,000  Level FlightAware ADS-B
Wed 06:35:43 PM 42.4980 -87.2600 91° East 508 585 37,000  Level FlightAware ADS-B
Wed 06:36:19 PM 42.4970 -87.1490 91° East 508 585 37,000  Level FlightAware ADS-B
Wed 06:36:53 PM 42.4960 -87.0380 91° East 508 585 37,000  Level FlightAware ADS-B
Wed 06:37:32 PM 42.4950 -86.9200 91° East 507 583 37,000  Level FlightAware ADS-B
Wed 06:38:04 PM 42.4940 -86.8160 91° East 506 582 37,000  Level FlightAware ADS-B
Wed 06:38:39 PM 42.4930 -86.7020 91° East 506 582 37,000  Level FlightAware ADS-B
Wed 06:39:16 PM 42.4920 -86.5880 91° East 507 583 37,000  Level FlightAware ADS-B
Wed 06:39:47 PM 42.4900 -86.4870 92° East 508 585 37,000  Level FlightAware ADS-B
Wed 06:40:24 PM 42.4890 -86.3720 91° East 510 587 37,000  Level FlightAware ADS-B
Wed 06:41:00 PM 42.4870 -86.2560 91° East 511 588 37,000  Level FlightAware ADS-B
Wed 06:41:37 PM 42.4850 -86.1350 91° East 510 587 37,000  Level FlightAware ADS-B
Wed 06:42:09 PM 42.4840 -86.0360 91° East 508 585 37,000  Level FlightAware ADS-B
Wed 06:42:45 PM 42.4820 -85.9220 91° East 507 583 37,000  Level FlightAware ADS-B
Wed 06:43:19 PM 42.4800 -85.8150 91° East 507 583 37,000  Level FlightAware ADS-B
Wed 06:43:54 PM 42.4780 -85.7050 91° East 507 583 37,000  Level FlightAware ADS-B
Wed 06:44:30 PM 42.4750 -85.5920 92° East 503 579 37,000  Level FlightAware ADS-B
Wed 06:45:05 PM 42.4730 -85.4790 91° East 502 578 37,000  Level FlightAware ADS-B
Wed 06:45:41 PM 42.4710 -85.3660 91° East 504 580 37,000  Level FlightAware ADS-B
Wed 06:46:14 PM 42.4680 -85.2630 92° East 508 585 37,000  Level FlightAware ADS-B
Wed 06:46:51 PM 42.4650 -85.1460 92° East 510 587 37,000  Level FlightAware ADS-B
Wed 06:47:36 PM 42.4620 -85.0040 92° East 508 585 37,000  Level FlightAware ADS-B
Wed 06:48:16 PM 42.4590 -84.8840 92° East 506 582 37,000 514 Level FlightAware ADS-B
Wed 06:48:46 PM 42.4560 -84.7840 92° East 504 580 37,600 971 Climbing FlightAware ADS-B
Wed 06:49:24 PM 42.4520 -84.6630 93° East 506 582 38,100 740 Climbing FlightAware ADS-B
Wed 06:49:59 PM 42.4490 -84.5530 92° East 506 582 38,500 750 Climbing FlightAware ADS-B
Wed 06:50:36 PM 42.4460 -84.4370 92° East 504 580 39,000 441 Climbing FlightAware ADS-B
Wed 06:51:07 PM 42.4430 -84.3380 92° East 500 575 39,000  Level FlightAware ADS-B
Wed 06:51:43 PM 42.4390 -84.2240 93° East 500 575 39,000  Level FlightAware ADS-B
Wed 06:52:21 PM 42.4350 -84.1070 93° East 501 577 39,000  Level FlightAware ADS-B
Wed 06:52:55 PM 42.4310 -84.0010 93° East 502 578 39,000  Level FlightAware ADS-B
Wed 06:53:29 PM 42.4280 -83.8920 92° East 502 578 39,000  Level FlightAware ADS-B
Wed 06:54:05 PM 42.4240 -83.7810 93° East 504 580 39,000  Level FlightAware ADS-B
Wed 06:54:37 PM 42.4200 -83.6800 93° East 506 582 39,000  Level FlightAware ADS-B
Wed 06:55:13 PM 42.4160 -83.5660 93° East 509 586 39,000  Level FlightAware ADS-B
Wed 06:55:51 PM 42.4110 -83.4430 93° East 510 587 39,000  Level FlightAware ADS-B
Wed 06:56:23 PM 42.4070 -83.3430 93° East 509 586 39,000  Level FlightAware ADS-B
Wed 06:56:59 PM 42.4020 -83.2280 93° East 509 586 39,000  Level FlightAware ADS-B
Wed 06:57:32 PM 42.3980 -83.1270 93° East 509 586 39,000  Level FlightAware ADS-B
Wed 06:58:09 PM 42.3920 -83.0050 94° East 510 587 39,000  Level FlightAware ADS-B
Wed 06:58:43 PM 42.3880 -82.8980 93° East 510 587 39,000  Level FlightAware ADS-B
Wed 06:59:17 PM 42.3830 -82.7920 94° East 511 588 39,000  Level FlightAware ADS-B
Wed 06:59:53 PM 42.3780 -82.6760 93° East 511 588 39,000  Level FlightAware ADS-B
Wed 07:00:29 PM 42.3730 -82.5610 93° East 511 588 39,000  Level FlightAware ADS-B
Wed 07:01:07 PM 42.3690 -82.4400 93° East 509 586 39,000  Level FlightAware ADS-B
Wed 07:01:39 PM 42.3650 -82.3380 93° East 508 585 39,000  Level FlightAware ADS-B
Wed 07:02:15 PM 42.3600 -82.2270 93° East 507 583 39,000  Level FlightAware ADS-B
Wed 07:02:45 PM 42.3560 -82.1330 93° East 506 582 39,000  Level FlightAware ADS-B
Wed 07:03:24 PM 42.3520 -82.0300 93° East 505 581 39,000  Level FlightAware ADS-B
Wed 07:03:53 PM 42.3480 -81.9440 94° East 505 581 39,000  Level FlightAware ADS-B
Wed 07:04:37 PM 42.3420 -81.8060 93° East 508 585 39,000  Level FlightAware ADS-B
Wed 07:05:19 PM 42.3350 -81.6660 94° East 514 592 39,000  Level FlightAware ADS-B
Wed 07:05:59 PM 42.3290 -81.5320 93° East 517 595 39,000  Level FlightAware ADS-B
Wed 07:06:28 PM 42.3250 -81.4510 94° East 518 596 39,000  Level FlightAware ADS-B
Wed 07:07:10 PM 42.3180 -81.3100 94° East 517 595 39,000  Level FlightAware ADS-B
Wed 07:07:44 PM 42.3130 -81.2140 94° East 517 595 39,000  Level FlightAware ADS-B
Wed 07:08:20 PM 42.3070 -81.0780 93° East 516 594 39,000  Level FlightAware ADS-B
Wed 07:09:01 PM 42.2990 -80.9430 95° East 515 593 39,000  Level FlightAware ADS-B
Wed 07:09:31 PM 42.2930 -80.8610 96° East 515 593 39,000  Level FlightAware ADS-B
Wed 07:10:05 PM 42.2800 -80.7380 98° East 514 592 39,000  Level FlightAware ADS-B
Wed 07:10:39 PM 42.2690 -80.6440 99° East 512 589 39,000  Level FlightAware ADS-B
Wed 07:11:18 PM 42.2560 -80.5480 100° East 513 590 39,000  Level FlightAware ADS-B
Wed 07:11:55 PM 42.2350 -80.3890 100° East 513 590 39,000  Level FlightAware ADS-B
Wed 07:12:25 PM 42.2220 -80.3000 101° East 514 592 39,000  Level FlightAware ADS-B
Wed 07:13:10 PM 42.2030 -80.1570 100° East 515 593 39,000  Level FlightAware ADS-B
Wed 07:13:42 PM 42.1900 -80.0610 100° East 515 593 39,000  Level FlightAware ADS-B
Wed 07:14:22 PM 42.1700 -79.9210 101° East 514 592 39,000  Level FlightAware ADS-B
Wed 07:14:59 PM 42.1540 -79.8010 100° East 516 594 39,000  Level FlightAware ADS-B
Wed 07:15:39 PM 42.1360 -79.6760 101° East 518 596 39,000  Level FlightAware ADS-B
Wed 07:16:17 PM 42.1190 -79.5550 101° East 520 598 39,000  Level FlightAware ADS-B
Wed 07:16:49 PM 42.1050 -79.4540 101° East 519 597 39,000  Level FlightAware ADS-B
Wed 07:17:25 PM 42.0880 -79.3390 101° East 518 596 39,000  Level FlightAware ADS-B
Wed 07:17:59 PM 42.0730 -79.2350 101° East 517 595 39,000  Level FlightAware ADS-B
Wed 07:18:35 PM 42.0570 -79.1210 101° East 516 594 39,000  Level FlightAware ADS-B
Wed 07:19:07 PM 42.0420 -79.0210 101° East 515 593 39,000  Level FlightAware ADS-B
Wed 07:19:45 PM 42.0260 -78.9080 101° East 514 592 39,000  Level FlightAware ADS-B
Wed 07:20:17 PM 42.0100 -78.8020 101° East 514 592 39,000  Level FlightAware ADS-B
Wed 07:20:57 PM 41.9910 -78.6760 101° East 515 593 39,000  Level FlightAware ADS-B
Wed 07:21:29 PM 41.9760 -78.5750 101° East 512 589 39,000  Level FlightAware ADS-B
Wed 07:22:05 PM 41.9600 -78.4650 101° East 506 582 39,000  Level FlightAware ADS-B
Wed 07:22:37 PM 41.9450 -78.3660 101° East 503 579 39,000  Level FlightAware ADS-B
Wed 07:23:17 PM 41.9260 -78.2450 102° East 503 579 39,000  Level FlightAware ADS-B
Wed 07:23:46 PM 41.9120 -78.1560 102° East 504 580 39,000  Level FlightAware ADS-B
Wed 07:24:26 PM 41.8930 -78.0310 102° East 505 581 39,000  Level FlightAware ADS-B
Wed 07:25:00 PM 41.8770 -77.9300 102° East 505 581 39,000  Level FlightAware ADS-B
Wed 07:25:34 PM 41.8570 -77.8250 104° East 511 588 39,000  Level FlightAware ADS-B
Wed 07:26:10 PM 41.8290 -77.7160 109° East 513 590 39,000  Level FlightAware ADS-B
Wed 07:26:46 PM 41.8010 -77.6080 109° East 515 593 39,000  Level FlightAware ADS-B
Wed 07:27:18 PM 41.7770 -77.5150 109° East 514 592 39,000  Level FlightAware ADS-B
Wed 07:27:54 PM 41.7530 -77.4020 106° East 512 589 39,000  Level FlightAware ADS-B
Wed 07:28:24 PM 41.7350 -77.3140 105° East 512 589 39,000  Level FlightAware ADS-B
Wed 07:29:06 PM 41.7090 -77.1850 105° East 509 586 39,000  Level FlightAware ADS-B
Wed 07:29:46 PM 41.6780 -77.0680 109° East 516 594 39,000  Level FlightAware ADS-B
Wed 07:30:23 PM 41.6450 -76.9570 112° Southeast 517 595 39,000  Level FlightAware ADS-B
Wed 07:30:54 PM 41.6170 -76.8640 112° Southeast 519 597 39,000  Level FlightAware ADS-B
Wed 07:31:38 PM 41.5790 -76.7330 111° Southeast 518 596 39,000  Level FlightAware ADS-B
Wed 07:32:14 PM 41.5470 -76.6230 111° Southeast 521 600 39,000  Level FlightAware ADS-B
Wed 07:32:51 PM 41.5150 -76.5120 111° Southeast 526 605 39,000  Level FlightAware ADS-B
Wed 07:33:24 PM 41.4870 -76.4150 111° Southeast 526 605 39,000 -174 Level FlightAware ADS-B
Wed 07:34:00 PM 41.4560 -76.3070 111° Southeast 519 597 38,800 -609 Descending FlightAware ADS-B
Wed 07:34:33 PM 41.4270 -76.2080 111° Southeast 511 588 38,300 -1,043 Descending FlightAware ADS-B
Wed 07:35:09 PM 41.3960 -76.1030 111° Southeast 511 588 37,600 -1,371 Descending FlightAware ADS-B
Wed 07:35:43 PM 41.3670 -76.0040 111° Southeast 517 595 36,700 -1,971 Descending FlightAware ADS-B
Wed 07:36:19 PM 41.3360 -75.8990 111° Southeast 528 608 35,300 -2,366 Descending FlightAware ADS-B
Wed 07:36:54 PM 41.3050 -75.7950 112° Southeast 523 602 33,900 -2,471 Descending FlightAware ADS-B
Wed 07:37:27 PM 41.2760 -75.6980 112° Southeast 520 598 32,500 -2,862 Descending FlightAware ADS-B
Wed 07:37:59 PM 41.2450 -75.6020 113° Southeast 521 600 30,800 -3,158 Descending FlightAware ADS-B
Wed 07:38:43 PM 41.2000 -75.4720 115° Southeast 517 595 28,500 -2,747 Descending FlightAware ADS-B
Wed 07:39:22 PM 41.1620 -75.3600 114° Southeast 504 580 27,000 -2,351 Descending FlightAware ADS-B
Wed 07:39:57 PM 41.1280 -75.2600 114° Southeast 491 565 25,600 -2,382 Descending FlightAware ADS-B
Wed 07:40:30 PM 41.1000 -75.1750 114° Southeast 483 556 24,300 -2,143 Descending FlightAware ADS-B
Wed 07:41:07 PM 41.0650 -75.0730 114° Southeast 473 544 23,100 -1,013 Descending FlightAware ADS-B
Wed 07:41:47 PM 41.0300 -74.9700 114° Southeast 470 541 23,000 -79 Descending FlightAware ADS-B
Wed 07:42:23 PM 41.0010 -74.8760 112° Southeast 446 513 23,000  Level FlightAware ADS-B
Wed 07:42:55 PM 40.9870 -74.7930 103° East 412 474 23,000  Level FlightAware ADS-B
Wed 07:43:33 PM 40.9770 -74.7040 98° East 386 444 23,000  Level FlightAware ADS-B
Wed 07:44:05 PM 40.9700 -74.6280 97° East 377 434 23,000  Level FlightAware ADS-B
Wed 07:44:43 PM 40.9610 -74.5440 98° East 374 430 23,000 -500 Level FlightAware ADS-B
Wed 07:45:17 PM 40.9520 -74.4670 99° East 373 429 22,400 -1,235 Descending FlightAware ADS-B
Wed 07:45:51 PM 40.9440 -74.3910 98° East 373 429 21,600 -1,371 Descending FlightAware ADS-B
Wed 07:46:27 PM 40.9340 -74.3080 99° East 364 419 20,800 -1,333 Descending FlightAware ADS-B
Wed 07:47:03 PM 40.9260 -74.2330 98° East 352 405 20,000 -1,500 Descending FlightAware ADS-B
Wed 07:47:23 PM 40.9190 -74.1890 102° East 351 404 19,400 -1,500 Descending FlightAware ADS-B
Wed 07:47:39 PM 40.9080 -74.1600 117° Southeast 350 403 19,100 -667 Descending FlightAware ADS-B
Wed 07:47:59 PM 40.8860 -74.1320 136° Southeast 351 404 19,000 -750 Descending FlightAware ADS-B
Wed 07:48:35 PM 40.8300 -74.0970 155° Southeast 349 402 18,400 -1,080 Descending FlightAware ADS-B
Wed 07:48:49 PM 40.8103 -74.0850 155° Southeast 342 394 18,100 -1,750 Descending FlightAware ADS-B
Wed 07:48:59 PM 40.7956 -74.0756 154° Southeast 338 389 17,700 -2,250 Descending FlightAware ADS-B
Wed 07:49:05 PM 40.7876 -74.0695 150° Southeast 336 387 17,500 -2,318 Descending FlightAware ADS-B
Wed 07:49:43 PM 40.7410 -74.0300 147° Southeast 329 379 16,000 -2,382 Descending FlightAware ADS-B
Wed 07:50:13 PM 40.7020 -74.0000 150° Southeast 320 368 14,800 -2,364 Descending FlightAware ADS-B
Wed 07:50:49 PM 40.6500 -73.9930 174° South 318 366 13,400 -1,500 Descending FlightAware ADS-B
Wed 07:51:21 PM 40.6020 -73.9910 178° South 318 366 13,100 -375 Descending FlightAware ADS-B
Wed 07:51:37 PM 40.5770 -73.9840 168° South 312 359 13,100 -120 Level FlightAware ADS-B
Wed 07:52:11 PM 40.5320 -73.9620 160° South 312 359 13,000 -771 Descending FlightAware ADS-B
Wed 07:52:47 PM 40.4850 -73.9390 160° South 307 353 12,200 -1,250 Descending FlightAware ADS-B
Wed 07:52:59 PM 40.4690 -73.9280 152° Southeast 302 348 12,000 -1,241 Descending FlightAware ADS-B
Wed 07:53:16 PM 40.4540 -73.9070 133° Southeast 296 341 11,600 -1,375 Descending FlightAware ADS-B
Wed 07:53:47 PM 40.4350 -73.8580 117° Southeast 291 335 10,900 -1,324 Descending FlightAware ADS-B
Wed 07:54:24 PM 40.4130 -73.8000 116° Southeast 290 334 10,100 -1,345 Descending FlightAware ADS-B
Wed 07:54:45 PM 40.4000 -73.7660 117° Southeast 289 333 9,600 -1,543 Descending FlightAware ADS-B
Wed 07:54:59 PM 40.3950 -73.7420 105° East 290 334 9,200 -1,412 Descending FlightAware ADS-B
Wed 07:55:02 PM 40.3950 -73.7370 90° East 290 334 9,200 -1,400 Level FlightAware ADS-B
Wed 07:55:29 PM 40.4020 -73.6880 79° East 286 329 8,500 -1,404 Descending FlightAware ADS-B
Wed 07:55:49 PM 40.4100 -73.6560 72° East 286 329 8,100 -1,286 Descending FlightAware ADS-B
Wed 07:55:57 PM 40.4160 -73.6440 57° Northeast 285 328 7,900 -1,333 Descending FlightAware ADS-B
Wed 07:56:16 PM 40.4320 -73.6210 48° Northeast 284 327 7,500 -1,200 Descending FlightAware ADS-B
Wed 07:56:37 PM 40.4520 -73.5940 46° Northeast 281 323 7,100 -667 Descending FlightAware ADS-B
Wed 07:57:01 PM 40.4740 -73.5650 45° Northeast 282 325 7,000 -150 Descending FlightAware ADS-B
Wed 07:57:17 PM 40.4870 -73.5490 43° Northeast 282 325 7,000  Level FlightAware ADS-B
Wed 07:57:38 PM 40.5070 -73.5210 47° Northeast 283 326 7,000  Level FlightAware ADS-B
Wed 07:58:00 PM 40.5270 -73.4940 46° Northeast 284 327 7,000  Level FlightAware ADS-B
Wed 07:58:11 PM 40.5360 -73.4820 45° Northeast 282 325 7,000  Level FlightAware ADS-B
Wed 07:58:28 PM 40.5550 -73.4610 40° Northeast 283 326 7,000 -474 Level FlightAware ADS-B
Wed 07:58:49 PM 40.5790 -73.4440 28° Northeast 281 323 6,700 -977 Descending FlightAware ADS-B
Wed 07:59:11 PM 40.6060 -73.4270 26° Northeast 277 319 6,300 -1,200 Descending FlightAware ADS-B
Wed 07:59:29 PM 40.6270 -73.4140 25° Northeast 277 319 5,900 -1,286 Descending FlightAware ADS-B
Wed 07:59:39 PM 40.6390 -73.4090 18° North 277 319 5,700 -1,500 Descending FlightAware ADS-B
Wed 07:59:45 PM 40.6470 -73.4080 North 278 320 5,500 -1,154 Descending FlightAware ADS-B
Wed 08:00:05 PM 40.6680 -73.4160 344° North 278 320 5,200 -800 Descending FlightAware ADS-B
Wed 08:00:15 PM 40.6740 -73.4210 328° Northwest 277 319 5,100 -1,400 Descending FlightAware ADS-B
Wed 08:00:35 PM 40.7010 -73.4440 327° Northwest 277 319 4,500 -1,600 Descending FlightAware ADS-B
Wed 08:00:45 PM 40.7100 -73.4540 320° Northwest 276 318 4,300 -1,200 Descending FlightAware ADS-B
Wed 08:01:10 PM 40.7330 -73.4830 316° Northwest 277 319 3,800 -1,200 Descending FlightAware ADS-B
Wed 08:01:30 PM 40.7490 -73.5020 318° Northwest 274 315 3,400 -1,000 Descending FlightAware ADS-B
Wed 08:01:40 PM 40.7590 -73.5180 310° West 269 310 3,300 -500 Descending FlightAware ADS-B
Wed 08:02:06 PM 40.7750 -73.5570 298° West 252 290 3,100 -383 Descending FlightAware ADS-B
Wed 08:02:27 PM 40.7850 -73.5870 294° West 232 267 3,000 -222 Descending FlightAware ADS-B
Wed 08:02:33 PM 40.7850 -73.5930 270° West 228 262 3,000  Level FlightAware ADS-B
Wed 08:02:55 PM 40.7770 -73.6220 250° West 221 254 3,000 -429 Level FlightAware ADS-B
Wed 08:03:15 PM 40.7670 -73.6430 238° Southwest 220 253 2,700 -1,000 Descending FlightAware ADS-B
Wed 08:03:31 PM 40.7570 -73.6610 234° Southwest 222 255 2,400 -1,125 Descending FlightAware ADS-B
Wed 08:03:47 PM 40.7430 -73.6760 219° Southwest 216 249 2,100 -857 Descending FlightAware ADS-B
Wed 08:04:13 PM 40.7220 -73.6950 214° Southwest 208 239 1,800 -818 Descending FlightAware ADS-B
Wed 08:04:31 PM 40.7080 -73.7060 211° Southwest 194 223 1,500 -1,000 Descending FlightAware ADS-B
Wed 08:04:43 PM 40.7000 -73.7120 210° Southwest 183 211 1,300 -1,000 Descending FlightAware ADS-B
Wed 08:05:07 PM 40.6830 -73.7250 210° Southwest 160 184 900 -818 Descending FlightAware ADS-B
Wed 08:05:27 PM 40.6710 -73.7350 212° Southwest 148 170 700 -750 Descending FlightAware ADS-B
Wed 08:05:47 PM 40.6590 -73.7440 210° Southwest 148 170 400 -833 Descending FlightAware ADS-B
Wed 08:06:03 PM 40.6500 -73.7510 211° Southwest 146 168 200 -529 Descending FlightAware ADS-B
Wed 08:06:21 PM 40.6400 -73.7590 211° Southwest 135 155 100 -333 Descending FlightAware ADS-B

Login

Don't have an account? Register now (free) for customized features, flight alerts, and more!